createdAt,value
2018-05-14T00:02:14.476Z,42.55
2018-05-14T00:04:46.861Z,42.57
2018-05-14T00:07:18.763Z,43.13
2018-05-14T00:09:50.173Z,43.29
2018-05-14T00:12:22.724Z,43.26
2018-05-14T00:14:54.153Z,43.22
2018-05-14T00:17:26.266Z,43.07
2018-05-14T00:19:58.643Z,42.91
2018-05-14T00:22:30.309Z,42.62
2018-05-14T00:25:02.742Z,42.14
2018-05-14T00:27:34.180Z,41.51
2018-05-14T00:30:06.059Z,41.64
2018-05-14T00:32:37.530Z,41.54
2018-05-14T00:35:09.007Z,41.34
2018-05-14T00:37:41.469Z,41.18
2018-05-14T00:40:13.021Z,40.59
2018-05-14T00:42:44.513Z,40.42
2018-05-14T00:45:16.474Z,40.87
2018-05-14T00:47:47.977Z,40.76
2018-05-14T00:50:19.377Z,40.37
2018-05-14T00:52:50.938Z,40.17
2018-05-14T00:55:22.657Z,40.24
2018-05-14T00:57:54.101Z,40.27
2018-05-14T01:00:26.149Z,39.80
2018-05-14T01:02:58.633Z,39.43
2018-05-14T01:05:29.673Z,39.07
2018-05-14T01:08:00.276Z,38.75
2018-05-14T01:10:33.783Z,38.73
2018-05-14T01:13:06.150Z,38.59
2018-05-14T01:15:36.909Z,38.96
2018-05-14T01:18:07.483Z,39.14
2018-05-14T01:20:38.038Z,39.49
2018-05-14T01:23:08.551Z,39.16
2018-05-14T01:25:38.855Z,39.61
2018-05-14T01:28:09.404Z,39.80
2018-05-14T01:30:40.212Z,39.98
2018-05-14T01:33:10.811Z,40.18
2018-05-14T01:35:43.215Z,40.21
2018-05-14T01:38:13.785Z,40.04
2018-05-14T01:40:44.365Z,40.40
2018-05-14T01:43:14.957Z,40.11
2018-05-14T01:45:45.778Z,40.08
2018-05-14T01:48:16.299Z,40.19
2018-05-14T01:50:46.899Z,40.04
2018-05-14T01:53:17.500Z,40.03
2018-05-14T01:55:48.082Z,40.03
2018-05-14T01:58:18.698Z,39.84
2018-05-14T02:00:49.301Z,39.95
2018-05-14T02:03:19.837Z,39.84
2018-05-14T02:05:50.377Z,39.96
2018-05-14T02:08:20.953Z,39.92
2018-05-14T02:10:51.527Z,40.06
2018-05-14T02:13:22.101Z,40.08
2018-05-14T02:15:52.726Z,40.21
2018-05-14T02:18:23.304Z,40.37
2018-05-14T02:20:53.901Z,40.65
2018-05-14T02:23:24.523Z,40.89
2018-05-14T02:25:55.136Z,40.95
2018-05-14T02:28:25.731Z,41.27
2018-05-14T02:30:56.339Z,41.23
2018-05-14T02:33:26.883Z,41.35
2018-05-14T02:35:57.589Z,41.70
2018-05-14T02:38:28.169Z,41.67
2018-05-14T02:40:59.106Z,41.76
2018-05-14T02:43:29.773Z,41.69
2018-05-14T02:46:00.547Z,41.58
2018-05-14T02:48:31.284Z,41.57
2018-05-14T02:51:01.943Z,41.48
2018-05-14T02:53:33.281Z,41.50
2018-05-14T02:56:03.956Z,41.56
2018-05-14T02:58:35.087Z,41.65
2018-05-14T03:01:05.717Z,41.69
2018-05-14T03:03:36.514Z,41.63
2018-05-14T03:06:07.043Z,41.70
2018-05-14T03:08:37.970Z,41.90
2018-05-14T03:11:08.545Z,41.80
2018-05-14T03:13:39.181Z,41.56
2018-05-14T03:16:09.816Z,41.27
2018-05-14T03:18:40.299Z,41.19
2018-05-14T03:21:11.006Z,41.03
2018-05-14T03:23:41.605Z,40.99
2018-05-14T03:26:12.236Z,40.74
2018-05-14T03:28:42.852Z,40.53
2018-05-14T03:31:13.479Z,40.45
2018-05-14T03:33:44.052Z,39.78
2018-05-14T03:36:14.443Z,39.47
2018-05-14T03:38:44.990Z,39.33
2018-05-14T03:41:15.623Z,38.95
2018-05-14T03:43:46.241Z,38.74
2018-05-14T03:46:16.962Z,38.22
2018-05-14T03:48:47.519Z,37.83
2018-05-14T03:51:18.061Z,37.79
2018-05-14T03:53:48.657Z,37.77
2018-05-14T03:56:19.235Z,37.62
2018-05-14T04:02:00.808Z,37.49
2018-05-14T04:05:39.354Z,37.81
2018-05-14T04:08:09.696Z,38.23
2018-05-14T04:10:40.769Z,38.21
2018-05-14T04:13:11.400Z,38.58
2018-05-14T04:15:42.197Z,38.69
2018-05-14T04:18:12.800Z,38.67
2018-05-14T04:20:43.672Z,38.61
2018-05-14T04:23:14.298Z,38.76
2018-05-14T04:25:44.904Z,38.98
2018-05-14T04:28:15.496Z,39.12
2018-05-14T04:30:46.125Z,38.72
2018-05-14T04:33:16.732Z,38.49
2018-05-14T04:35:47.367Z,38.48
2018-05-14T04:38:17.948Z,38.41
2018-05-14T04:40:48.657Z,38.11
2018-05-14T04:43:21.095Z,38.07
2018-05-14T04:45:51.684Z,38.32
2018-05-14T04:48:28.773Z,38.37
2018-05-14T04:50:59.432Z,38.43
2018-05-14T04:53:30.881Z,38.75
2018-05-14T04:56:01.827Z,39.09
2018-05-14T04:58:32.492Z,39.13
2018-05-14T05:01:03.234Z,38.85
2018-05-14T05:03:33.833Z,38.66
2018-05-14T05:06:04.448Z,38.54
2018-05-14T05:08:35.319Z,38.42
2018-05-14T05:11:05.943Z,38.15
2018-05-14T05:13:37.046Z,37.96
2018-05-14T05:16:07.746Z,38.14
2018-05-14T05:18:38.627Z,37.90
2018-05-14T05:21:09.240Z,37.79
2018-05-14T05:23:40.110Z,37.33
2018-05-14T05:26:10.780Z,37.37
2018-05-14T05:28:41.747Z,37.31
2018-05-14T05:31:12.382Z,36.86
2018-05-14T05:33:43.164Z,37.00
2018-05-14T05:36:13.780Z,36.84
2018-05-14T05:38:44.652Z,36.57
2018-05-14T05:41:15.376Z,36.63
2018-05-14T05:43:45.978Z,36.83
2018-05-14T05:46:18.492Z,36.56
2018-05-14T05:48:49.085Z,36.39
2018-05-14T05:51:19.621Z,36.36
2018-05-14T05:53:50.248Z,36.14
2018-05-14T05:56:20.828Z,36.02
2018-05-14T05:58:51.409Z,35.78
2018-05-14T06:01:22.050Z,35.34
2018-05-14T06:03:52.824Z,35.37
2018-05-14T06:06:23.420Z,35.33
2018-05-14T06:08:53.988Z,34.98
2018-05-14T06:11:24.528Z,35.19
2018-05-14T06:13:55.263Z,35.10
2018-05-14T06:16:25.927Z,35.02
2018-05-14T06:18:56.561Z,35.13
2018-05-14T06:21:27.217Z,34.55
2018-05-14T06:23:59.044Z,34.25
2018-05-14T06:26:29.616Z,33.75
2018-05-14T06:29:00.210Z,33.74
2018-05-14T06:31:30.872Z,33.96
2018-05-14T06:34:01.467Z,34.06
2018-05-14T06:36:33.242Z,33.41
2018-05-14T06:39:04.650Z,32.88
2018-05-14T06:41:35.448Z,31.27
2018-05-14T06:44:06.085Z,31.13
2018-05-14T06:46:37.116Z,31.28
2018-05-14T06:49:08.013Z,31.76
2018-05-14T06:51:39.719Z,31.87
2018-05-14T06:54:10.431Z,32.31
2018-05-14T06:56:41.729Z,32.25
2018-05-14T06:59:12.349Z,31.97
2018-05-14T07:01:43.342Z,32.05
2018-05-14T07:04:14.534Z,31.82
2018-05-14T07:06:45.520Z,31.74
2018-05-14T07:09:16.080Z,31.24
2018-05-14T07:11:46.696Z,31.28
2018-05-14T07:14:17.237Z,31.60
2018-05-14T07:16:47.880Z,31.45
2018-05-14T07:19:18.509Z,31.30
2018-05-14T07:21:49.272Z,31.07
2018-05-14T07:24:19.797Z,31.31
2018-05-14T07:26:50.384Z,31.00
2018-05-14T07:29:21.174Z,31.03
2018-05-14T07:31:51.673Z,31.15
2018-05-14T07:34:22.320Z,31.29
2018-05-14T07:36:52.884Z,31.04
2018-05-14T07:39:23.677Z,31.08
2018-05-14T07:41:54.246Z,30.78
2018-05-14T07:44:24.797Z,30.89
2018-05-14T07:46:55.302Z,31.08
2018-05-14T07:49:25.864Z,30.60
2018-05-14T07:51:56.383Z,30.53
2018-05-14T07:54:27.068Z,30.33
2018-05-14T07:56:57.708Z,30.14
2018-05-14T07:59:28.369Z,29.77
2018-05-14T08:01:59.033Z,29.92
2018-05-14T08:04:30.068Z,29.76
2018-05-14T08:07:00.666Z,29.67
2018-05-14T08:09:31.210Z,29.13
2018-05-14T08:12:01.831Z,28.97
2018-05-14T08:14:32.351Z,28.77
2018-05-14T08:17:03.009Z,28.26
2018-05-14T08:19:33.714Z,28.24
2018-05-14T08:22:04.600Z,27.98
2018-05-14T08:24:35.402Z,27.89
2018-05-14T08:27:06.053Z,27.73
2018-05-14T08:29:37.141Z,28.09
2018-05-14T08:32:07.505Z,28.77
2018-05-14T08:34:38.308Z,29.14
2018-05-14T08:37:15.719Z,30.52
2018-05-14T08:39:46.328Z,31.61
2018-05-14T08:42:17.204Z,32.11
2018-05-14T08:44:47.948Z,33.11
2018-05-14T08:47:18.569Z,34.34
2018-05-14T08:49:49.310Z,34.68
2018-05-14T08:52:19.944Z,35.20
2018-05-14T08:54:50.283Z,35.49
2018-05-14T08:57:20.904Z,35.89
2018-05-14T08:59:51.783Z,35.87
2018-05-14T09:02:22.336Z,36.42
2018-05-14T09:04:52.682Z,36.53
2018-05-14T09:07:27.081Z,36.21
2018-05-14T09:09:57.597Z,36.40
2018-05-14T09:12:28.193Z,36.27
2018-05-14T09:14:58.896Z,36.59
2018-05-14T09:17:29.494Z,36.30
2018-05-14T09:20:00.111Z,35.71
2018-05-14T09:22:31.646Z,36.14
2018-05-14T09:25:02.287Z,36.55
2018-05-14T09:27:32.956Z,36.24
2018-05-14T09:30:05.551Z,36.27
2018-05-14T09:32:36.766Z,36.53
2018-05-14T09:35:07.481Z,36.78
2018-05-14T09:37:40.178Z,36.75
2018-05-14T09:40:10.808Z,36.83
2018-05-14T09:42:42.879Z,36.88
2018-05-14T09:45:14.867Z,37.06
2018-05-14T09:47:46.126Z,36.63
2018-05-14T09:50:16.742Z,36.54
2018-05-14T09:52:48.188Z,36.37
2018-05-14T09:55:18.780Z,35.84
2018-05-14T09:57:49.495Z,35.67
2018-05-14T10:00:20.108Z,35.63
2018-05-14T10:02:50.830Z,35.54
2018-05-14T10:05:21.421Z,34.98
2018-05-14T10:07:52.013Z,34.48
2018-05-14T10:10:22.602Z,33.90
2018-05-14T10:12:53.236Z,33.88
2018-05-14T10:15:23.988Z,33.14
2018-05-14T10:17:54.943Z,33.17
2018-05-14T10:20:26.557Z,32.88
2018-05-14T10:22:57.129Z,32.85
2018-05-14T10:25:27.813Z,31.88
2018-05-14T10:27:58.557Z,31.37
2018-05-14T10:30:29.137Z,32.83
2018-05-14T10:32:59.723Z,32.28
2018-05-14T10:35:30.253Z,32.73
2018-05-14T10:38:00.978Z,32.40
2018-05-14T10:43:38.622Z,30.21
2018-05-14T10:46:09.247Z,29.01
2018-05-14T10:48:39.833Z,28.80
2018-05-14T10:51:10.878Z,28.68
2018-05-14T10:53:41.601Z,28.47
2018-05-14T10:56:12.319Z,27.81
2018-05-14T10:58:44.102Z,26.76
2018-05-14T11:01:14.501Z,26.21
2018-05-14T11:03:45.942Z,26.28
2018-05-14T11:06:16.624Z,25.45
2018-05-14T11:08:49.309Z,25.07
2018-05-14T11:11:20.230Z,25.00
2018-05-14T11:13:51.077Z,24.82
2018-05-14T11:16:22.120Z,24.75
2018-05-14T11:18:53.479Z,24.29
2018-05-14T11:21:24.280Z,23.30
2018-05-14T11:23:55.117Z,23.20
2018-05-14T11:26:25.692Z,22.69
2018-05-14T11:28:56.321Z,21.92
2018-05-14T11:31:26.979Z,21.61
2018-05-14T11:33:57.673Z,21.04
2018-05-14T11:36:28.273Z,20.61
2018-05-14T11:38:58.888Z,20.77
2018-05-14T11:41:29.484Z,19.75
2018-05-14T11:44:00.059Z,20.05
2018-05-14T11:46:30.577Z,19.74
2018-05-14T11:49:01.217Z,19.88
2018-05-14T11:51:31.781Z,20.42
2018-05-14T11:54:02.359Z,20.41
2018-05-14T11:56:32.984Z,20.45
2018-05-14T11:59:03.598Z,19.67
2018-05-14T12:01:34.285Z,20.30
2018-05-14T12:04:04.862Z,20.57
2018-05-14T12:06:35.190Z,20.50
2018-05-14T12:09:06.394Z,20.38
2018-05-14T12:11:37.008Z,20.48
2018-05-14T12:14:07.581Z,20.14
2018-05-14T12:16:38.245Z,19.63
2018-05-14T12:19:08.871Z,19.28
2018-05-14T12:21:39.460Z,19.00
2018-05-14T12:24:10.040Z,19.16
2018-05-14T12:26:40.624Z,18.69
2018-05-14T12:29:11.199Z,19.01
2018-05-14T12:31:41.775Z,19.46
2018-05-14T12:34:12.441Z,19.58
2018-05-14T12:36:43.165Z,19.35
2018-05-14T12:39:15.878Z,18.71
2018-05-14T12:41:48.259Z,18.67
2018-05-14T12:44:20.158Z,18.40
2018-05-14T12:46:54.501Z,18.69
2018-05-14T12:49:25.081Z,18.86
2018-05-14T12:51:56.287Z,18.37
2018-05-14T12:54:27.034Z,17.48
2018-05-14T12:56:57.714Z,17.28
2018-05-14T12:59:28.350Z,17.26
2018-05-14T13:01:58.900Z,17.60
2018-05-14T13:04:29.433Z,17.66
2018-05-14T13:07:00.054Z,17.44
2018-05-14T13:09:32.616Z,17.47
2018-05-14T13:12:03.696Z,17.20
2018-05-14T13:14:34.290Z,17.04
2018-05-14T13:17:04.957Z,17.24
2018-05-14T13:19:35.504Z,16.54
2018-05-14T13:22:06.233Z,16.42
2018-05-14T13:24:38.751Z,17.18
2018-05-14T13:27:09.491Z,18.19
2018-05-14T13:29:41.913Z,18.25
2018-05-14T13:32:14.241Z,19.41
2018-05-14T13:34:46.139Z,20.73
2018-05-14T13:37:16.762Z,22.68
2018-05-14T13:39:49.545Z,24.54
2018-05-14T13:42:20.618Z,26.60
2018-05-14T13:44:53.829Z,28.86
2018-05-14T13:47:25.312Z,28.44
2018-05-14T13:49:55.947Z,29.06
2018-05-14T13:52:26.489Z,29.46
2018-05-14T13:54:58.973Z,29.85
2018-05-14T13:57:29.553Z,30.22
2018-05-14T14:00:00.236Z,30.88
2018-05-14T14:02:32.041Z,31.96
2018-05-14T14:05:02.793Z,32.47
2018-05-14T14:07:33.476Z,32.64
2018-05-14T14:10:04.044Z,34.25
2018-05-14T14:12:34.674Z,33.41
2018-05-14T14:15:06.298Z,32.36
2018-05-14T14:17:36.978Z,31.75
2018-05-14T14:20:07.729Z,31.50
2018-05-14T14:22:38.308Z,32.26
2018-05-14T14:25:08.958Z,32.38
2018-05-14T14:27:40.516Z,31.63
2018-05-14T14:30:12.556Z,31.79
2018-05-14T14:32:43.734Z,32.42
2018-05-14T14:35:14.465Z,32.66
2018-05-14T14:37:45.657Z,32.80
2018-05-14T14:40:16.297Z,32.30
2018-05-14T14:42:48.746Z,31.60
2018-05-14T14:45:19.977Z,32.00
2018-05-14T14:47:51.863Z,32.87
2018-05-14T14:50:24.294Z,32.96
2018-05-14T14:52:55.074Z,33.38
2018-05-14T14:55:25.725Z,34.30
2018-05-14T14:57:56.481Z,34.68
2018-05-14T15:00:27.313Z,34.84
2018-05-14T15:02:57.845Z,34.87
2018-05-14T15:05:28.635Z,34.63
2018-05-14T15:07:59.353Z,35.03
2018-05-14T15:10:29.968Z,34.86
2018-05-14T15:13:00.575Z,35.43
2018-05-14T15:15:31.188Z,36.42
2018-05-14T15:18:01.781Z,36.57
2018-05-14T15:20:32.168Z,37.16
2018-05-14T15:23:02.801Z,37.26
2018-05-14T15:25:33.408Z,37.41
2018-05-14T15:28:04.036Z,38.22
2018-05-14T15:30:34.563Z,37.80
2018-05-14T15:33:05.156Z,37.84
2018-05-14T15:35:35.768Z,37.52
2018-05-14T15:38:06.366Z,37.23
2018-05-14T15:40:36.944Z,37.27
2018-05-14T15:43:07.598Z,36.73
2018-05-14T15:45:38.199Z,36.36
2018-05-14T15:48:08.750Z,36.74
2018-05-14T15:50:39.386Z,36.44
2018-05-14T15:53:10.023Z,36.40
2018-05-14T15:55:40.638Z,35.36
2018-05-14T15:58:11.314Z,34.16
2018-05-14T16:00:42.222Z,34.16
2018-05-14T16:03:12.756Z,33.97
2018-05-14T16:05:43.384Z,33.56
2018-05-14T16:08:13.918Z,33.34
2018-05-14T16:10:44.525Z,33.62
2018-05-14T16:13:15.084Z,33.58
2018-05-14T16:15:45.637Z,33.07
2018-05-14T16:18:16.137Z,32.25
2018-05-14T16:20:46.841Z,31.00
2018-05-14T16:23:17.505Z,30.35
2018-05-14T16:25:48.058Z,30.64
2018-05-14T16:28:18.613Z,30.19
2018-05-14T16:30:49.171Z,30.04
2018-05-14T16:33:19.855Z,27.38
2018-05-14T16:35:50.515Z,26.49
2018-05-14T16:38:21.115Z,26.06
2018-05-14T16:40:52.288Z,25.67
2018-05-14T16:43:22.968Z,24.87
2018-05-14T16:45:53.641Z,24.33
2018-05-14T16:48:24.209Z,24.44
2018-05-14T16:50:54.851Z,24.12
2018-05-14T16:53:25.442Z,24.14
2018-05-14T16:55:56.108Z,23.38
2018-05-14T16:58:30.328Z,23.55
2018-05-14T17:01:04.895Z,23.34
2018-05-14T17:03:35.616Z,23.17
2018-05-14T17:06:06.855Z,22.40
2018-05-14T17:08:37.381Z,22.67
2018-05-14T17:11:08.614Z,22.55
2018-05-14T17:13:39.220Z,22.24
2018-05-14T17:16:10.033Z,22.09
2018-05-14T17:18:41.512Z,21.74
2018-05-14T17:21:12.181Z,21.10
2018-05-14T17:23:43.192Z,21.31
2018-05-14T17:26:16.068Z,20.85
2018-05-14T17:28:46.721Z,20.17
2018-05-14T17:31:19.091Z,19.80
2018-05-14T17:33:49.647Z,19.89
2018-05-14T17:36:20.295Z,19.64
2018-05-14T17:38:52.908Z,19.64
2018-05-14T17:41:23.888Z,19.54
2018-05-14T17:43:54.389Z,19.31
2018-05-14T17:46:25.845Z,19.44
2018-05-14T17:48:58.202Z,19.68
2018-05-14T17:51:28.788Z,20.08
2018-05-14T17:53:59.610Z,20.42
2018-05-14T17:56:30.464Z,20.32
2018-05-14T17:59:02.082Z,20.66
2018-05-14T18:01:32.787Z,20.35
2018-05-14T18:04:05.294Z,20.50
2018-05-14T18:06:37.834Z,20.34
2018-05-14T18:09:08.563Z,20.30
2018-05-14T18:11:39.976Z,19.98
2018-05-14T18:14:11.796Z,20.01
2018-05-14T18:16:43.225Z,20.10
2018-05-14T18:19:14.738Z,20.09
2018-05-14T18:21:48.324Z,20.17
2018-05-14T18:24:20.935Z,20.07
2018-05-14T18:26:52.448Z,20.11
2018-05-14T18:29:27.963Z,20.19
2018-05-14T18:32:03.693Z,20.48
2018-05-14T18:34:39.309Z,20.21
2018-05-14T18:37:11.197Z,20.50
2018-05-14T18:39:42.678Z,20.53
2018-05-14T18:42:14.246Z,20.62
2018-05-14T18:44:45.695Z,20.81
2018-05-14T18:47:17.143Z,20.78
2018-05-14T18:49:48.711Z,20.90
2018-05-14T18:52:21.064Z,20.97
2018-05-14T18:54:52.569Z,21.09
2018-05-14T18:57:25.021Z,21.07
2018-05-14T18:59:56.816Z,21.07
2018-05-14T19:02:28.467Z,21.24
2018-05-14T19:04:59.939Z,21.36
2018-05-14T19:07:31.387Z,21.36
2018-05-14T19:10:06.822Z,21.44
2018-05-14T19:12:38.296Z,21.39
2018-05-14T19:15:14.901Z,21.49
2018-05-14T19:17:53.561Z,21.46
2018-05-14T19:20:25.999Z,21.68
2018-05-14T19:23:02.337Z,21.60
2018-05-14T19:25:35.618Z,21.73
2018-05-14T19:28:11.109Z,21.82
2018-05-14T19:30:43.518Z,21.83
2018-05-14T19:33:20.735Z,21.84
2018-05-14T19:36:00.339Z,21.95
2018-05-14T19:38:31.796Z,22.06
2018-05-14T19:41:03.423Z,22.13
2018-05-14T19:43:34.833Z,22.10
2018-05-14T19:46:06.229Z,22.07
2018-05-14T19:48:37.705Z,22.05
2018-05-14T19:51:09.427Z,22.01
2018-05-14T19:53:41.278Z,21.70
2018-05-14T19:56:13.417Z,21.79
2018-05-14T19:58:45.081Z,21.79
2018-05-14T20:01:17.664Z,21.73
2018-05-14T20:03:49.359Z,21.81
2018-05-14T20:06:23.336Z,21.95
2018-05-14T20:08:54.876Z,21.99
2018-05-14T20:11:26.782Z,21.88
2018-05-14T20:13:58.190Z,21.82
2018-05-14T20:16:29.718Z,21.95
2018-05-14T20:19:01.170Z,22.09
2018-05-14T20:21:32.580Z,22.18
2018-05-14T20:24:10.400Z,21.99
2018-05-14T20:26:42.053Z,22.04
2018-05-14T20:29:14.780Z,22.13
2018-05-14T20:31:46.399Z,22.00
2018-05-14T20:34:19.553Z,21.77
2018-05-14T20:36:51.350Z,21.69
2018-05-14T20:39:23.631Z,21.66
2018-05-14T20:42:01.523Z,21.63
2018-05-14T20:44:33.008Z,21.47
2018-05-14T20:47:04.469Z,21.49
2018-05-14T20:49:36.014Z,21.48
2018-05-14T20:52:08.355Z,21.34
2018-05-14T20:54:41.002Z,21.41
2018-05-14T20:57:12.920Z,21.37
2018-05-14T20:59:44.960Z,21.52
2018-05-14T21:02:18.509Z,21.45
2018-05-14T21:04:50.004Z,21.47
2018-05-14T21:07:22.743Z,21.47
2018-05-14T21:09:54.292Z,21.54
2018-05-14T21:12:26.727Z,21.57
2018-05-14T21:14:59.128Z,21.54
2018-05-14T21:17:30.588Z,21.64
2018-05-14T21:20:02.050Z,21.69
2018-05-14T21:22:33.460Z,21.51
2018-05-14T21:25:04.922Z,21.50
2018-05-14T21:27:36.382Z,21.58
2018-05-14T21:30:07.848Z,21.47
2018-05-14T21:32:39.308Z,21.26
2018-05-14T21:35:10.712Z,21.53
2018-05-14T21:37:41.862Z,21.50
2018-05-14T21:40:13.806Z,21.57
2018-05-14T21:42:46.404Z,21.55
2018-05-14T21:45:18.655Z,21.53
2018-05-14T21:47:50.638Z,21.57
2018-05-14T21:50:23.801Z,21.48
2018-05-14T21:52:55.375Z,21.55
2018-05-14T21:55:26.826Z,21.58
2018-05-14T21:57:58.056Z,21.44
2018-05-14T22:00:29.175Z,21.44
2018-05-14T22:03:00.378Z,21.38
2018-05-14T22:21:22.757Z,28.12
2018-05-14T22:23:54.507Z,27.49
2018-05-14T22:26:26.278Z,27.15
2018-05-14T22:28:58.103Z,27.14
2018-05-14T22:31:29.472Z,27.06
2018-05-14T22:34:00.813Z,26.83
2018-05-14T22:36:34.947Z,26.71
2018-05-14T22:39:06.862Z,26.81
2018-05-14T22:41:40.450Z,26.55
2018-05-14T22:44:11.966Z,26.71
2018-05-14T22:46:43.575Z,26.65
2018-05-14T22:49:15.954Z,26.46
2018-05-14T22:51:47.488Z,26.54
2018-05-14T22:54:28.649Z,26.53
2018-05-14T22:56:59.927Z,26.55
2018-05-14T22:59:32.626Z,26.70
2018-05-14T23:02:04.055Z,26.83
2018-05-14T23:04:35.400Z,26.80
2018-05-14T23:07:08.003Z,27.03
2018-05-14T23:09:40.290Z,26.96
2018-05-14T23:12:11.782Z,27.19
2018-05-14T23:14:47.120Z,27.23
2018-05-14T23:17:20.731Z,27.35
2018-05-14T23:19:52.124Z,27.46
2018-05-14T23:22:33.605Z,27.47
2018-05-14T23:25:05.355Z,27.66
2018-05-14T23:27:38.341Z,27.65
2018-05-14T23:30:09.921Z,27.58
2018-05-14T23:32:42.940Z,27.60
2018-05-14T23:35:15.176Z,27.70
2018-05-14T23:37:49.837Z,27.66
2018-05-14T23:40:22.029Z,27.67
2018-05-14T23:42:54.438Z,27.70
2018-05-14T23:45:33.130Z,27.68
2018-05-14T23:48:06.046Z,27.78
2018-05-14T23:50:37.706Z,27.83
2018-05-14T23:53:09.319Z,27.89
2018-05-14T23:55:40.684Z,27.76
2018-05-14T23:58:12.035Z,27.84
